Time;durP1;ratioP1;P1;durP2;ratioP2;P2;SDS_P1;SDS_P2;PMS_P1;PMS_P2;Temp;Humidity;BMP_temperature;BMP_pressure;BME280_temperature;BME280_humidity;BME280_pressure;Samples;Min_cycle;Max_cycle;Signal;HPM_P1;HPM_P2
2023/06/17 00:00:16;;;;;;;11.95;10.75;;;17.20;99.90;;;16.79;100.00;101102.28;4184851;28;20392;-76
2023/06/17 00:02:17;;;;;;;14.00;12.00;;;17.20;99.90;;;16.70;100.00;101081.25;4167184;28;20120;-76
2023/06/17 00:04:18;;;;;;;11.88;10.77;;;17.20;99.90;;;16.79;100.00;101098.78;4200217;28;20395;-76
2023/06/17 00:06:19;;;;;;;13.52;12.13;;;17.20;99.90;;;16.83;100.00;101102.75;4166568;28;20025;-76
2023/06/17 00:08:20;;;;;;;13.48;12.07;;;17.30;99.90;;;16.84;100.00;101099.06;4184988;28;20028;-77
2023/06/17 00:10:21;;;;;;;12.10;10.88;;;17.30;99.90;;;16.81;100.00;101088.78;4167328;28;20021;-76
2023/06/17 00:12:24;;;;;;;14.70;13.30;;;17.30;99.90;;;16.77;100.00;101076.84;4166887;28;20465;-76
2023/06/17 00:14:25;;;;;;;17.80;12.93;;;17.30;99.90;;;16.83;100.00;101090.25;4184840;28;20032;-76
2023/06/17 00:16:26;;;;;;;15.02;12.85;;;17.30;99.90;;;16.67;100.00;101063.00;4183647;28;20033;-76
2023/06/17 00:18:28;;;;;;;13.23;11.90;;;17.30;99.90;;;16.76;100.00;101088.50;4150858;28;20406;-76
2023/06/17 00:20:30;;;;;;;13.95;11.90;;;17.20;99.90;;;16.57;100.00;101071.31;4183358;28;20060;-77
2023/06/17 00:22:34;;;;;;;12.95;10.88;;;17.20;99.90;;;16.61;100.00;101085.09;4167117;28;20017;-76
2023/06/17 00:24:35;;;;;;;12.68;11.48;;;17.10;99.90;;;16.56;100.00;101086.47;4183021;28;20063;-76
2023/06/17 00:26:36;;;;;;;12.57;11.32;;;17.10;99.90;;;16.63;100.00;101099.84;4195199;28;20067;-76
2023/06/17 00:28:37;;;;;;;14.13;12.65;;;17.00;99.90;;;16.63;100.00;101096.38;4199346;28;20028;-77
2023/06/17 00:30:38;;;;;;;13.63;12.13;;;17.00;99.90;;;16.57;100.00;101090.78;4185229;28;20025;-76
2023/06/17 00:32:40;;;;;;;15.85;13.68;;;17.00;99.90;;;16.63;100.00;101089.22;4169829;28;20036;-76
2023/06/17 00:34:41;;;;;;;16.67;14.18;;;17.10;99.90;;;16.66;100.00;101088.00;4170165;28;20013;-76
2023/06/17 00:36:42;;;;;;;13.73;12.18;;;17.10;99.90;;;16.51;100.00;101056.03;4169638;28;20072;-76
2023/06/17 00:38:43;;;;;;;13.95;12.25;;;17.10;99.90;;;16.55;100.00;101065.31;4187882;28;20025;-76
2023/06/17 00:40:44;;;;;;;14.05;12.55;;;17.10;99.90;;;16.60;100.00;101078.91;4169939;28;20021;-76
2023/06/17 00:42:45;;;;;;;13.45;11.68;;;17.10;99.90;;;16.48;100.00;101057.25;4153467;28;20030;-76
2023/06/17 00:44:46;;;;;;;15.15;12.82;;;17.00;99.90;;;16.53;100.00;101070.81;4202835;28;20377;-76
2023/06/17 00:46:50;;;;;;;14.95;13.55;;;17.10;99.90;;;16.65;100.00;101091.66;4187613;28;20056;-76
2023/06/17 00:48:51;;;;;;;14.77;12.63;;;17.00;99.90;;;16.56;100.00;101078.47;4170041;28;20032;-76
2023/06/17 00:50:52;;;;;;;15.07;13.50;;;17.10;99.90;;;16.59;100.00;101075.44;4169740;28;20029;-76
2023/06/17 00:52:53;;;;;;;16.75;13.95;;;17.10;99.90;;;16.56;100.00;101059.00;4153023;28;20425;-76
2023/06/17 00:54:55;;;;;;;15.48;13.82;;;17.10;99.90;;;16.67;100.00;101074.47;4169851;28;20108;-76
2023/06/17 00:56:57;;;;;;;15.05;12.95;;;17.20;99.90;;;16.73;100.00;101078.22;4153140;28;20061;-76
2023/06/17 00:58:57;;;;;;;15.23;12.57;;;17.20;99.90;;;16.67;100.00;101058.50;4185920;28;20547;-76
2023/06/17 01:00:58;;;;;;;14.20;12.77;;;17.20;99.90;;;16.84;100.00;101085.75;4169633;28;20082;-76
2023/06/17 01:03:00;;;;;;;13.93;12.48;;;17.30;99.90;;;16.83;100.00;101078.75;4187440;28;20024;-76
2023/06/17 01:05:01;;;;;;;15.80;13.10;;;17.30;99.90;;;16.84;100.00;101075.09;4169234;28;20068;-76
2023/06/17 01:07:46;;;;;;;14.70;13.20;;;17.30;99.90;;;16.89;100.00;101072.69;4169471;28;20048;-76
2023/06/17 01:10:02;;;;;;;12.30;11.00;;;17.30;99.90;;;16.87;100.00;101067.56;4187171;28;20029;-76
2023/06/17 01:12:07;;;;;;;10.95;9.82;;;17.40;99.90;;;16.75;100.00;101050.41;4170971;28;20026;-76
2023/06/17 01:14:10;;;;;;;13.00;11.00;;;17.30;99.90;;;16.76;100.00;101044.06;4169562;28;20036;-76
2023/06/17 01:16:11;;;;;;;13.00;11.68;;;17.30;99.90;;;16.81;100.00;101065.66;4187161;28;20028;-76
2023/06/17 01:18:17;;;;;;;15.38;12.50;;;17.30;99.90;;;16.76;100.00;101061.88;4169198;28;20516;-76
2023/06/17 01:20:18;;;;;;;13.75;11.82;;;17.20;99.90;;;16.73;100.00;101060.41;4186701;28;20021;-76
2023/06/17 01:22:20;;;;;;;13.65;11.15;;;17.20;99.90;;;16.72;100.00;101063.28;4169261;28;20483;-76
2023/06/17 01:24:29;;;;;;;17.23;12.73;;;17.20;99.90;;;16.69;100.00;101064.47;4169328;28;20029;-76
2023/06/17 01:26:31;;;;;;;14.90;13.30;;;17.10;99.90;;;16.61;100.00;101059.25;4187161;28;20471;-76
2023/06/17 01:28:33;;;;;;;15.30;13.32;;;17.10;99.90;;;16.54;100.00;101050.38;4169042;28;20017;-76
2023/06/17 01:30:34;;;;;;;14.15;11.73;;;17.00;99.90;;;16.53;100.00;101060.16;4169283;28;20030;-76
2023/06/17 01:32:35;;;;;;;14.43;12.65;;;17.00;99.90;;;16.48;100.00;101059.06;4152670;28;20378;-76
2023/06/17 01:34:55;;;;;;;14.02;12.63;;;16.90;99.90;;;16.37;100.00;101048.88;4185696;28;20032;-76
2023/06/17 01:36:58;;;;;;;13.93;12.52;;;16.90;99.90;;;16.35;100.00;101057.06;4170922;28;20021;-76
2023/06/17 01:39:03;;;;;;;16.00;12.25;;;16.80;99.90;;;16.24;100.00;101043.41;4169165;28;20458;-76
2023/06/17 01:41:31;;;;;;;13.45;12.13;;;16.80;99.90;;;16.15;100.00;101029.38;4169099;28;20034;-76
2023/06/17 01:43:35;;;;;;;12.90;10.35;;;16.70;99.90;;;16.12;100.00;101035.06;4153971;28;20042;-76
2023/06/17 01:45:36;;;;;;;12.77;10.95;;;16.70;99.90;;;16.14;100.00;101043.69;4154945;28;20026;-76
2023/06/17 01:47:37;;;;;;;13.73;11.57;;;16.60;99.90;;;16.04;100.00;101027.16;4168798;28;20085;-76
2023/06/17 01:49:39;;;;;;;14.27;12.85;;;16.60;99.90;;;15.99;100.00;101017.09;4168667;28;20026;-76
2023/06/17 01:51:40;;;;;;;15.38;12.93;;;16.50;99.90;;;16.01;100.00;101031.03;4168601;28;20515;-76
2023/06/17 01:53:41;;;;;;;14.52;12.95;;;16.50;99.90;;;15.90;100.00;101025.34;4168830;28;20036;-76
2023/06/17 01:55:41;;;;;;;14.88;11.65;;;16.50;99.90;;;15.86;100.00;101022.22;4168952;28;20036;-76
2023/06/17 01:57:42;;;;;;;12.90;10.85;;;16.40;99.90;;;15.82;100.00;101028.94;4186012;28;20025;-76
2023/06/17 01:59:44;;;;;;;12.55;11.25;;;16.30;99.90;;;15.62;100.00;100997.75;4185004;28;20026;-76
2023/06/17 02:01:45;;;;;;;12.30;11.02;;;16.30;99.90;;;15.74;100.00;101028.19;4186374;28;20035;-76
2023/06/17 02:03:46;;;;;;;11.30;10.15;;;16.30;99.90;;;15.70;100.00;101018.91;4152192;28;20521;-76
2023/06/17 02:05:46;;;;;;;11.95;9.68;;;16.20;99.90;;;15.56;100.00;100998.47;4185945;28;20055;-76
2023/06/17 02:07:47;;;;;;;12.02;10.73;;;16.20;99.90;;;15.60;100.00;101013.84;4186254;28;20041;-76
2023/06/17 02:09:48;;;;;;;15.02;13.43;;;16.10;99.90;;;15.59;100.00;101017.50;4168725;28;20065;-77
2023/06/17 02:11:49;;;;;;;15.68;12.68;;;16.10;99.90;;;15.57;100.00;101019.53;4168706;28;20452;-76
2023/06/17 02:13:50;;;;;;;14.70;12.93;;;16.10;99.90;;;15.49;100.00;101015.16;4186208;28;20025;-76
2023/06/17 02:15:51;;;;;;;14.93;11.90;;;16.00;99.90;;;15.36;100.00;100988.31;4168643;28;20029;-76
2023/06/17 02:17:53;;;;;;;13.90;12.35;;;16.00;99.90;;;15.41;100.00;100998.41;4186249;28;20021;-76
2023/06/17 02:19:54;;;;;;;15.65;12.38;;;16.00;99.90;;;15.45;100.00;101005.84;4185898;28;20021;-76
2023/06/17 02:21:55;;;;;;;14.13;12.63;;;16.00;99.90;;;15.38;100.00;100990.81;4168264;28;20092;-76
2023/06/17 02:23:56;;;;;;;12.40;11.10;;;16.00;99.90;;;15.36;100.00;100990.97;4168353;28;20033;-76
2023/06/17 02:25:57;;;;;;;14.95;13.35;;;15.90;99.90;;;15.38;100.00;101010.22;4168120;28;20170;-76
2023/06/17 02:27:58;;;;;;;15.80;13.02;;;15.90;99.90;;;15.26;100.00;100992.25;4151761;28;20029;-76
2023/06/17 02:30:00;;;;;;;13.70;12.15;;;15.90;99.90;;;15.27;100.00;100989.38;4168196;28;20025;-76
2023/06/17 02:32:01;;;;;;;13.50;11.50;;;15.80;99.90;;;15.24;100.00;100987.09;4151628;28;20096;-76
2023/06/17 02:34:02;;;;;;;15.82;12.57;;;15.80;99.90;;;15.27;100.00;100997.38;4168221;28;20022;-76
2023/06/17 02:36:03;;;;;;;13.38;11.98;;;15.80;99.90;;;15.13;100.00;100970.75;4151671;28;20026;-76
2023/06/17 02:38:05;;;;;;;13.52;11.25;;;15.80;99.90;;;15.26;100.00;100990.38;4185763;28;20024;-76
2023/06/17 02:40:08;;;;;;;13.23;11.40;;;15.80;99.90;;;15.15;100.00;100972.22;4168358;28;20499;-76
2023/06/17 02:42:11;;;;;;;12.57;11.27;;;15.80;99.90;;;15.27;100.00;101007.16;4167979;28;20416;-76
2023/06/17 02:44:12;;;;;;;16.15;13.57;;;15.70;99.90;;;15.20;100.00;100996.41;4185668;28;20029;-76
2023/06/17 02:46:13;;;;;;;15.43;13.85;;;15.70;99.90;;;15.19;100.00;100996.63;4167868;28;20064;-76
2023/06/17 02:48:14;;;;;;;15.30;13.63;;;15.70;99.90;;;15.14;100.00;100983.84;4185652;28;20033;-76
2023/06/17 02:50:14;;;;;;;15.25;13.80;;;15.70;99.90;;;15.25;100.00;100998.56;4167705;28;20421;-76
2023/06/17 02:52:15;;;;;;;16.98;15.25;;;15.70;99.90;;;15.21;100.00;100992.78;4167939;28;20029;-76
2023/06/17 02:54:16;;;;;;;16.55;14.75;;;15.70;99.90;;;15.25;100.00;101003.88;4166779;28;20524;-76
2023/06/17 02:56:17;;;;;;;15.82;14.23;;;15.70;99.90;;;15.12;100.00;100977.91;4185493;28;20033;-76
2023/06/17 02:58:18;;;;;;;16.17;14.20;;;15.70;99.90;;;15.13;100.00;100984.03;4185417;28;20049;-76
2023/06/17 03:00:20;;;;;;;15.75;14.05;;;15.70;99.90;;;15.18;100.00;100982.50;4167852;28;20033;-76
2023/06/17 03:02:21;;;;;;;18.55;15.80;;;15.70;99.90;;;15.30;100.00;100997.00;4185392;28;20096;-76
2023/06/17 03:04:23;;;;;;;16.77;14.27;;;15.80;99.90;;;15.28;100.00;100977.75;4167645;28;20033;-76
2023/06/17 03:06:24;;;;;;;15.15;13.65;;;15.80;99.90;;;15.27;100.00;100980.59;4167608;28;20099;-76
2023/06/17 03:08:25;;;;;;;14.00;12.65;;;15.80;99.90;;;15.19;100.00;100965.56;4167661;28;20580;-76
2023/06/17 03:10:26;;;;;;;19.50;14.90;;;15.70;99.90;;;15.22;100.00;100973.16;4167721;28;20413;-76
2023/06/17 03:12:27;;;;;;;14.60;13.10;;;15.70;99.90;;;15.10;100.00;100955.19;4185139;28;20040;-76
2023/06/17 03:14:29;;;;;;;14.02;12.40;;;15.70;99.90;;;15.14;100.00;100965.25;4167559;28;20029;-76
2023/06/17 03:16:33;;;;;;;15.23;13.73;;;15.70;99.90;;;15.19;100.00;100973.53;4185329;28;20033;-76
2023/06/17 03:18:33;;;;;;;;;;;15.70;99.90;;;15.00;100.00;100958.06;4168285;28;20095;-76
2023/06/17 03:20:34;;;;;;;15.02;13.35;;;15.70;99.90;;;15.09;100.00;100972.94;4167554;28;19932;-76
2023/06/17 03:22:35;;;;;;;19.70;15.13;;;15.60;99.90;;;15.05;100.00;100971.66;4167463;28;20025;-76
2023/06/17 03:24:36;;;;;;;15.63;14.02;;;15.60;99.90;;;15.06;100.00;100975.97;4167462;28;20406;-76
2023/06/17 03:26:38;;;;;;;16.42;14.73;;;15.60;99.90;;;15.02;100.00;100973.84;4167521;28;20034;-76
2023/06/17 03:28:39;;;;;;;17.95;14.55;;;15.50;99.90;;;14.98;100.00;100964.59;4185278;28;20477;-76
2023/06/17 03:30:40;;;;;;;17.33;14.68;;;15.50;99.90;;;15.01;100.00;100969.53;4167520;28;20057;-76
2023/06/17 03:32:44;;;;;;;14.65;13.15;;;15.50;99.90;;;15.00;100.00;100970.53;4185077;28;20032;-76
2023/06/17 03:34:46;;;;;;;;;;;15.50;99.90;;;14.88;100.00;100970.97;4167620;28;20116;-76
2023/06/17 03:36:47;;;;;;;18.05;14.38;;;15.50;99.90;;;14.89;100.00;100982.41;4185048;28;19916;-76
2023/06/17 03:38:48;;;;;;;12.95;11.65;;;15.40;99.90;;;14.77;100.00;100957.28;4151216;28;20030;-76
2023/06/17 03:40:49;;;;;;;13.65;12.15;;;15.40;99.90;;;14.82;100.00;100969.03;4151104;28;20116;-76
2023/06/17 03:42:50;;;;;;;13.93;12.48;;;15.40;99.90;;;14.84;100.00;100968.84;4185002;28;20087;-76
2023/06/17 03:44:50;;;;;;;15.15;13.45;;;15.40;99.90;;;14.86;100.00;100974.81;4167304;28;20025;-76
2023/06/17 03:46:51;;;;;;;14.93;13.23;;;15.40;99.90;;;14.78;100.00;100970.38;4167302;28;20029;-76
2023/06/17 03:48:53;;;;;;;14.38;12.88;;;15.40;99.90;;;14.70;100.00;100954.50;4167284;28;20029;-76
2023/06/17 03:50:54;;;;;;;15.43;12.13;;;15.40;99.90;;;14.84;100.00;100979.47;4184799;28;20484;-76
2023/06/17 03:52:55;;;;;;;14.05;12.55;;;15.40;99.90;;;14.83;100.00;100977.81;4183395;28;20033;-76
2023/06/17 03:54:56;;;;;;;20.80;13.23;;;15.40;99.90;;;14.72;100.00;100960.47;4184990;28;20480;-76
2023/06/17 03:56:57;;;;;;;19.52;12.50;;;15.40;99.90;;;14.79;100.00;100966.72;4185113;28;20067;-76
2023/06/17 03:58:57;;;;;;;17.30;14.55;;;15.40;99.90;;;14.81;100.00;100966.56;4167156;28;20451;-76
2023/06/17 04:00:58;;;;;;;14.30;11.77;;;15.30;99.90;;;14.83;100.00;100976.00;4167109;28;20452;-75
2023/06/17 04:03:00;;;;;;;14.32;12.10;;;15.30;99.90;;;14.77;100.00;100966.09;4168360;28;20025;-76
2023/06/17 04:05:02;;;;;;;16.45;12.95;;;15.30;99.90;;;14.76;100.00;100971.56;4183315;28;20109;-76
2023/06/17 04:07:04;;;;;;;14.25;12.65;;;15.40;99.90;;;14.81;100.00;100979.84;4169905;28;20025;-76
2023/06/17 04:09:05;;;;;;;13.82;12.38;;;15.30;99.90;;;14.79;100.00;100976.50;4170294;28;20077;-76
2023/06/17 04:11:06;;;;;;;13.55;12.15;;;15.40;99.90;;;14.72;100.00;100960.47;4170429;28;20505;-76
2023/06/17 04:13:07;;;;;;;15.27;12.38;;;15.40;99.90;;;14.85;100.00;100987.25;4171766;28;20034;-76
2023/06/17 04:15:08;;;;;;;13.10;11.80;;;15.40;99.90;;;14.79;100.00;100977.34;4170329;28;20524;-75
2023/06/17 04:17:09;;;;;;;12.98;11.68;;;15.40;99.90;;;14.92;100.00;100988.22;4171528;28;20392;-76
2023/06/17 04:19:13;;;;;;;13.77;12.23;;;15.40;99.90;;;14.84;100.00;100958.22;4170667;28;20018;-75
2023/06/17 04:21:14;;;;;;;15.30;12.80;;;15.40;99.90;;;14.84;100.00;100960.88;4186374;28;20020;-76
2023/06/17 04:23:15;;;;;;;17.48;12.38;;;15.50;99.90;;;14.99;100.00;100972.38;4169984;28;20397;-76
2023/06/17 04:25:20;;;;;;;14.07;12.68;;;15.50;99.90;;;14.96;100.00;100954.94;4186260;28;20025;-76
2023/06/17 04:27:22;;;;;;;13.68;12.00;;;15.60;99.90;;;14.98;100.00;100965.41;4170275;28;20030;-76
2023/06/17 04:29:23;;;;;;;14.32;12.68;;;15.60;99.90;;;14.96;100.00;100960.25;4171335;28;20077;-75
2023/06/17 04:31:25;;;;;;;13.48;12.07;;;15.60;99.90;;;15.03;100.00;100967.50;4153506;28;20018;-76
2023/06/17 04:33:26;;;;;;;13.65;12.18;;;15.50;99.90;;;14.92;100.00;100952.84;4169977;28;20124;-76
2023/06/17 04:35:27;;;;;;;16.33;12.82;;;15.50;99.90;;;14.95;100.00;100960.47;4169935;28;20025;-76
2023/06/17 04:37:28;;;;;;;13.27;11.80;;;15.50;99.90;;;14.87;100.00;100953.38;4170159;28;20025;-76
2023/06/17 04:39:29;;;;;;;14.23;12.70;;;15.50;99.90;;;14.90;100.00;100952.22;4169916;28;20053;-76
2023/06/17 04:41:32;;;;;;;16.70;12.82;;;15.40;99.90;;;14.81;100.00;100945.31;4169787;28;20033;-76
2023/06/17 04:43:33;;;;;;;14.73;12.38;;;15.40;99.90;;;14.87;100.00;100952.56;4171478;28;20092;-76
2023/06/17 04:45:35;;;;;;;13.82;12.43;;;15.40;99.90;;;14.95;100.00;100971.09;4169867;28;20033;-76
2023/06/17 04:47:36;;;;;;;14.05;12.45;;;15.40;99.90;;;14.87;100.00;100949.91;4170985;28;20018;-76
2023/06/17 04:49:41;;;;;;;13.65;11.27;;;15.50;99.90;;;14.87;100.00;100939.28;4170903;28;20397;-75
2023/06/17 04:51:42;;;;;;;13.75;12.35;;;15.50;99.90;;;15.02;100.00;100953.44;4171142;28;20160;-76
2023/06/17 04:53:44;;;;;;;12.90;11.60;;;15.50;99.90;;;15.10;100.00;100957.84;4169773;28;20022;-76
2023/06/17 04:55:45;;;;;;;12.25;10.77;;;15.60;99.90;;;15.07;100.00;100939.59;4170884;28;20043;-76
2023/06/17 04:57:46;;;;;;;13.32;11.93;;;15.60;99.90;;;15.26;100.00;100960.34;4169466;28;20026;-76
2023/06/17 04:59:47;;;;;;;16.20;12.40;;;15.70;99.90;;;15.24;100.00;100949.88;4170862;28;20037;-76
2023/06/17 05:01:48;;;;;;;13.38;12.07;;;15.80;99.90;;;15.32;100.00;100949.78;4170984;28;20036;-76
2023/06/17 05:03:49;;;;;;;15.73;11.95;;;15.80;99.90;;;15.55;100.00;100978.19;4169870;28;20026;-76
2023/06/17 05:05:51;;;;;;;14.40;11.70;;;15.90;99.90;;;15.65;100.00;100973.44;4185582;28;20029;-76
2023/06/17 05:07:51;;;;;;;13.25;11.85;;;16.00;99.90;;;15.70;100.00;100955.09;4169577;28;20112;-76
2023/06/17 05:09:52;;;;;;;13.95;11.65;;;16.10;99.90;;;15.90;100.00;100977.44;4170676;28;20029;-76
2023/06/17 05:11:53;;;;;;;17.23;14.00;;;16.30;99.90;;;15.95;100.00;100964.41;4169569;28;20022;-76
2023/06/17 05:13:54;;;;;;;13.30;12.00;;;16.40;99.90;;;16.02;100.00;100965.31;4185701;28;20025;-76
2023/06/17 05:15:55;;;;;;;14.43;12.05;;;16.50;99.90;;;16.06;100.00;100955.97;4153047;28;20492;-76
2023/06/17 05:17:56;;;;;;;14.90;13.30;;;16.50;99.90;;;16.23;100.00;100976.03;4168327;28;20033;-76
2023/06/17 05:19:57;;;;;;;15.02;13.43;;;16.60;99.90;;;16.31;100.00;100983.06;4169134;28;20021;-76
2023/06/17 05:21:58;;;;;;;15.65;13.77;;;16.70;99.90;;;16.30;100.00;100976.94;4185437;28;20061;-76
2023/06/17 05:23:58;;;;;;;14.13;12.73;;;16.70;99.90;;;16.30;100.00;100968.97;4169365;28;20374;-76
2023/06/17 05:25:59;;;;;;;14.52;11.88;;;16.70;99.90;;;16.35;100.00;100966.53;4170401;28;20041;-76
2023/06/17 05:28:00;;;;;;;12.98;11.57;;;16.80;99.90;;;16.39;100.00;100959.84;4169063;28;20059;-76
2023/06/17 05:30:01;;;;;;;13.25;11.50;;;16.90;99.90;;;16.54;100.00;100975.81;4169197;28;20038;-75
2023/06/17 05:32:02;;;;;;;12.50;11.30;;;16.90;99.90;;;16.50;100.00;100959.34;4169379;28;20084;-76
2023/06/17 05:34:03;;;;;;;12.60;11.30;;;17.00;99.90;;;16.58;100.00;100969.91;4170261;28;20041;-76
2023/06/17 05:36:05;;;;;;;13.48;11.15;;;17.00;99.90;;;16.66;100.00;100976.13;4168777;28;20009;-76
2023/06/17 05:38:06;;;;;;;12.80;10.85;;;17.00;99.90;;;16.66;100.00;100968.97;4152416;28;20029;-75
2023/06/17 05:40:07;;;;;;;11.88;9.45;;;17.00;99.90;;;16.72;100.00;100970.03;4172882;28;20021;-76
2023/06/17 05:42:08;;;;;;;12.10;10.32;;;17.10;99.90;;;16.59;100.00;100939.59;4169035;28;20033;-76
2023/06/17 05:44:09;;;;;;;11.20;10.10;;;17.10;99.90;;;16.83;100.00;100965.03;4170188;28;20105;-76
2023/06/17 05:46:10;;;;;;;13.13;11.82;;;17.20;99.90;;;16.74;100.00;100949.34;4169965;28;20029;-76
2023/06/17 05:48:12;;;;;;;14.48;12.32;;;17.20;99.90;;;16.84;100.00;100969.34;4168960;28;20029;-76
2023/06/17 05:50:13;;;;;;;15.80;14.13;;;17.20;99.90;;;16.87;100.00;100971.63;4168774;28;20447;-75
2023/06/17 05:52:14;;;;;;;17.77;14.30;;;17.30;99.90;;;16.89;100.00;100971.41;4168745;28;20033;-76
2023/06/17 05:54:14;;;;;;;14.55;13.05;;;17.30;99.90;;;16.81;100.00;100959.06;4168698;28;20044;-76
2023/06/17 05:56:16;;;;;;;16.33;13.25;;;17.30;99.90;;;16.98;100.00;100983.59;4168967;28;20512;-76
2023/06/17 05:58:18;;;;;;;16.83;14.98;;;17.30;99.90;;;16.96;100.00;100980.31;4176532;28;20056;-76
2023/06/17 06:00:20;;;;;;;16.85;15.07;;;17.40;99.90;;;17.04;100.00;100975.66;4168763;28;20108;-76
2023/06/17 06:02:21;;;;;;;14.55;13.05;;;17.40;99.90;;;17.27;100.00;100978.09;4168540;28;20041;-76
2023/06/17 06:04:21;;;;;;;12.82;11.50;;;17.50;99.90;;;17.41;100.00;100982.50;4168545;28;20451;-76
2023/06/17 06:06:22;;;;;;;14.20;11.82;;;17.70;99.90;;;17.64;100.00;100983.13;4186138;28;20079;-76
2023/06/17 06:08:23;;;;;;;14.88;11.88;;;17.80;99.90;;;17.86;100.00;100983.03;4168554;28;20040;-76
2023/06/17 06:10:27;;;;;;;12.60;11.35;;;18.00;99.90;;;18.01;100.00;100965.03;4168457;28;20073;-76
2023/06/17 06:12:28;;;;;;;11.95;10.82;;;18.20;99.90;;;18.16;100.00;100961.19;4201216;28;20381;-76
2023/06/17 06:14:29;;;;;;;15.65;12.38;;;18.40;99.90;;;18.43;100.00;100969.31;4185954;28;20071;-76
2023/06/17 06:16:30;;;;;;;13.23;11.93;;;18.60;99.90;;;18.68;100.00;100976.56;4169958;28;20476;-76
2023/06/17 06:18:31;;;;;;;12.23;11.02;;;18.80;99.90;;;18.88;100.00;100959.72;4201415;28;20074;-76
2023/06/17 06:20:31;;;;;;;11.32;10.23;;;19.00;99.90;;;19.13;100.00;100976.81;4184570;28;20037;-76
2023/06/17 06:22:32;;;;;;;12.88;11.48;;;19.20;99.90;;;19.06;100.00;100950.06;4168429;28;20057;-76
2023/06/17 06:24:33;;;;;;;14.98;12.60;;;19.30;99.90;;;19.18;100.00;100968.97;4168398;28;20033;-76
2023/06/17 06:26:34;;;;;;;12.02;10.20;;;19.30;99.90;;;19.13;100.00;100977.63;4185936;28;20102;-76
2023/06/17 06:28:35;;;;;;;16.25;13.57;;;19.30;99.90;;;19.08;100.00;100968.59;4167918;28;20037;-76
2023/06/17 06:30:36;;;;;;;12.68;11.35;;;19.40;99.90;;;19.05;100.00;100982.38;4168433;28;20033;-76
2023/06/17 06:32:37;;;;;;;15.18;13.55;;;19.40;99.90;;;19.13;100.00;100971.47;4168127;28;20064;-75
2023/06/17 06:34:37;;;;;;;13.50;12.15;;;19.50;99.90;;;19.33;100.00;100978.44;4185556;28;20033;-75
2023/06/17 06:36:38;;;;;;;15.27;13.68;;;19.60;99.90;;;19.59;100.00;100987.50;4185863;28;20021;-76
2023/06/17 06:38:39;;;;;;;15.48;13.15;;;19.80;99.90;;;19.81;100.00;100994.25;4168224;28;20104;-76
2023/06/17 06:40:40;;;;;;;15.32;12.48;;;20.00;99.90;;;20.01;100.00;100991.53;4168060;28;20026;-76
2023/06/17 06:42:41;;;;;;;13.70;12.18;;;20.20;99.90;;;20.00;100.00;100976.47;4185612;28;20025;-76
2023/06/17 06:44:42;;;;;;;12.63;11.15;;;20.30;99.90;;;20.13;100.00;100997.88;4167907;28;20493;-76
2023/06/17 06:46:43;;;;;;;12.10;10.73;;;20.30;99.90;;;20.01;100.00;100976.25;4185724;28;20037;-76
2023/06/17 06:48:44;;;;;;;13.60;12.20;;;20.30;99.90;;;20.06;100.00;100989.84;4185552;28;20110;-76
2023/06/17 06:50:45;;;;;;;12.43;11.13;;;20.30;99.90;;;20.05;100.00;100987.38;4167546;28;20041;-76
2023/06/17 06:52:46;;;;;;;11.27;10.07;;;20.30;99.90;;;20.10;100.00;100993.72;4167747;28;20032;-76
2023/06/17 06:54:47;;;;;;;16.67;11.85;;;20.30;99.90;;;19.99;100.00;100972.16;4185490;28;20025;-77
2023/06/17 06:56:49;;;;;;;14.10;12.57;;;20.30;99.90;;;20.09;100.00;100973.34;4184101;28;20025;-76
2023/06/17 06:58:50;;;;;;;12.55;11.05;;;20.30;99.90;;;20.26;100.00;100993.28;4167760;28;20128;-76
2023/06/17 07:00:51;;;;;;;11.88;10.68;;;20.30;99.90;;;20.40;100.00;100986.81;4185332;28;20033;-76
2023/06/17 07:02:52;;;;;;;10.63;9.60;;;20.40;99.90;;;20.46;100.00;100993.19;4185433;28;20025;-76
2023/06/17 07:04:52;;;;;;;11.70;9.20;;;20.50;99.90;;;20.43;100.00;100989.06;4185147;28;20029;-76
2023/06/17 07:06:53;;;;;;;11.80;10.35;;;20.50;99.90;;;20.43;100.00;101001.66;4167669;28;20092;-76
2023/06/17 07:08:54;;;;;;;13.27;10.48;;;20.50;99.90;;;20.29;100.00;100984.00;4167569;28;20025;-76
2023/06/17 07:10:55;;;;;;;9.18;8.27;;;20.50;99.90;;;20.35;100.00;100983.16;4167724;28;20033;-76
2023/06/17 07:12:56;;;;;;;10.55;8.65;;;20.50;99.90;;;20.46;100.00;100995.06;4167697;28;20029;-76
2023/06/17 07:14:57;;;;;;;11.63;9.43;;;20.60;99.90;;;20.32;100.00;100968.31;4167756;28;20022;-76
2023/06/17 07:16:58;;;;;;;9.23;8.30;;;20.60;99.90;;;20.28;100.00;100975.13;4185148;28;20033;-76
2023/06/17 07:18:59;;;;;;;9.40;8.18;;;20.60;99.90;;;20.31;100.00;100987.28;4200671;28;20028;-76
2023/06/17 07:21:01;;;;;;;9.15;8.07;;;20.70;99.90;;;20.30;100.00;100974.94;4200625;28;20023;-76
2023/06/17 07:23:01;;;;;;;7.30;6.60;;;20.70;99.90;;;20.38;100.00;100983.53;4183605;28;20480;-76
2023/06/17 07:25:03;;;;;;;11.57;8.20;;;20.80;99.90;;;20.50;100.00;100999.78;4167545;28;20033;-76
2023/06/17 07:27:04;;;;;;;11.43;9.50;;;20.80;99.90;;;20.59;100.00;101001.16;4185098;28;20115;-76
2023/06/17 07:29:05;;;;;;;10.55;8.95;;;20.80;99.90;;;20.54;100.00;100981.41;4167755;28;20401;-76
2023/06/17 07:31:06;;;;;;;11.90;10.18;;;20.90;99.90;;;20.62;100.00;100984.66;4167467;28;20041;-76
2023/06/17 07:33:07;;;;;;;10.32;9.15;;;21.00;99.90;;;20.74;100.00;100988.28;4151234;28;20033;-76
2023/06/17 07:35:08;;;;;;;12.02;8.80;;;21.10;99.90;;;20.87;100.00;101004.28;4166990;28;20428;-76
2023/06/17 07:37:09;;;;;;;8.45;7.20;;;21.10;99.90;;;20.84;100.00;100982.44;4167426;28;20416;-76
2023/06/17 07:39:10;;;;;;;9.27;8.38;;;21.20;99.90;;;21.11;100.00;101007.25;4167264;28;20036;-76
2023/06/17 07:41:11;;;;;;;9.07;8.18;;;21.30;99.90;;;21.17;100.00;101009.06;4186522;28;20075;-76
2023/06/17 07:43:12;;;;;;;8.93;7.68;;;21.30;99.90;;;21.21;100.00;101011.06;4188560;28;20036;-76
2023/06/17 07:45:13;;;;;;;10.68;9.57;;;21.40;99.90;;;21.29;100.00;100997.41;4188533;28;20508;-76
2023/06/17 07:47:14;;;;;;;9.25;8.20;;;21.60;99.90;;;21.30;100.00;100985.59;4170815;28;20079;-76
2023/06/17 07:49:15;;;;;;;11.55;8.95;;;21.70;99.90;;;21.48;100.00;100995.56;4170696;28;20045;-76
2023/06/17 07:51:16;;;;;;;7.70;6.88;;;21.80;99.90;;;21.74;100.00;100991.78;4186923;28;20532;-76
2023/06/17 07:53:17;;;;;;;8.38;7.45;;;22.00;99.90;;;22.04;100.00;100998.09;4154146;28;20045;-76
2023/06/17 07:55:18;;;;;;;6.10;5.38;;;22.20;99.90;;;22.32;99.79;101000.22;4170801;28;20028;-76
2023/06/17 07:57:19;;;;;;;9.20;7.82;;;22.50;99.90;;;22.49;93.89;100993.19;4188227;28;20025;-76
2023/06/17 07:59:20;;;;;;;7.68;6.93;;;22.70;99.90;;;22.66;88.75;100986.13;4203374;28;20136;-76
2023/06/17 08:01:22;;;;;;;6.97;5.43;;;22.90;99.90;;;22.87;87.76;101001.75;4188284;28;20473;-76
2023/06/17 08:03:23;;;;;;;5.95;4.85;;;23.00;99.90;;;22.86;87.40;101001.97;4187192;28;20021;-76
2023/06/17 08:05:24;;;;;;;6.05;4.70;;;23.00;99.90;;;22.89;87.94;101005.03;4170253;28;20470;-76
2023/06/17 08:07:25;;;;;;;5.60;4.88;;;23.10;99.90;;;22.85;86.10;100993.06;4203164;28;20046;-76
2023/06/17 08:09:25;;;;;;;5.38;4.85;;;23.10;99.90;;;22.84;85.27;100986.06;4170451;28;20045;-76
2023/06/17 08:11:26;;;;;;;6.72;5.28;;;23.20;99.90;;;22.77;84.90;100981.84;4170210;28;20083;-76